createdAt,value
2019-05-09T00:00:15.918Z,69.02
2019-05-09T00:02:45.163Z,69.45
2019-05-09T00:05:14.453Z,70.01
2019-05-09T00:07:43.990Z,70.24
2019-05-09T00:10:14.273Z,69.88
2019-05-09T00:12:43.862Z,69.93
2019-05-09T00:15:13.766Z,70.30
2019-05-09T00:17:43.928Z,70.30
2019-05-09T00:20:38.407Z,69.71
2019-05-09T00:23:07.994Z,69.65
2019-05-09T00:25:37.239Z,69.50
2019-05-09T00:28:07.047Z,69.65
2019-05-09T00:30:58.378Z,69.86
2019-05-09T00:33:29.939Z,69.29
2019-05-09T00:35:59.190Z,69.65
2019-05-09T00:38:37.763Z,69.27
2019-05-09T00:41:07.309Z,68.83
2019-05-09T00:43:36.914Z,69.25
2019-05-09T00:46:25.457Z,69.85
2019-05-09T00:49:00.666Z,69.51
2019-05-09T00:51:30.174Z,70.17
2019-05-09T00:54:00.044Z,70.32
2019-05-09T00:56:29.286Z,70.73
2019-05-09T00:58:58.875Z,70.63
2019-05-09T01:01:28.125Z,70.33
2019-05-09T01:03:57.419Z,70.86
2019-05-09T01:06:26.669Z,71.23
2019-05-09T01:08:55.974Z,71.38
2019-05-09T01:11:25.236Z,71.41
2019-05-09T01:13:54.716Z,71.97
2019-05-09T01:16:24.353Z,72.52
2019-05-09T01:18:54.610Z,72.09
2019-05-09T01:21:24.362Z,70.85
2019-05-09T01:23:54.140Z,72.08
2019-05-09T01:26:27.665Z,72.04
2019-05-09T01:28:57.249Z,71.47
2019-05-09T01:31:26.859Z,71.05
2019-05-09T01:34:09.097Z,71.48
2019-05-09T01:36:55.906Z,71.23
2019-05-09T01:39:25.218Z,71.12
2019-05-09T01:41:54.776Z,71.18
2019-05-09T01:44:24.126Z,71.44
2019-05-09T01:46:54.030Z,71.51
2019-05-09T01:49:23.979Z,70.52
2019-05-09T01:51:53.827Z,72.16
2019-05-09T01:54:25.020Z,72.00
2019-05-09T01:56:54.627Z,72.20
2019-05-09T01:59:24.344Z,71.55
2019-05-09T02:01:54.198Z,72.19
2019-05-09T02:04:24.268Z,71.84
2019-05-09T02:06:53.942Z,71.39
2019-05-09T02:09:23.542Z,71.08
2019-05-09T02:11:54.526Z,70.47
2019-05-09T02:14:36.404Z,70.78
2019-05-09T02:17:13.939Z,71.02
2019-05-09T02:19:44.101Z,70.38
2019-05-09T02:22:31.072Z,69.74
2019-05-09T02:25:00.248Z,70.83
2019-05-09T02:27:29.471Z,70.03
2019-05-09T02:29:58.655Z,69.70
2019-05-09T02:32:27.898Z,69.62
2019-05-09T02:34:57.082Z,69.99
2019-05-09T02:37:28.768Z,69.30
2019-05-09T02:39:59.154Z,69.34
2019-05-09T02:42:28.604Z,69.46
2019-05-09T02:44:59.432Z,68.99
2019-05-09T02:47:29.256Z,68.05
2019-05-09T02:49:59.164Z,68.56
2019-05-09T02:52:28.783Z,68.60
2019-05-09T02:54:58.535Z,67.97
2019-05-09T02:57:29.397Z,67.88
2019-05-09T03:00:19.944Z,68.19
2019-05-09T03:03:00.563Z,67.52
2019-05-09T03:05:30.067Z,67.04
2019-05-09T03:07:59.261Z,67.12
2019-05-09T03:10:29.489Z,67.64
2019-05-09T03:12:59.531Z,67.49
2019-05-09T03:15:29.475Z,67.55
2019-05-09T03:17:59.851Z,67.65
2019-05-09T03:20:49.207Z,67.43
2019-05-09T03:23:19.107Z,67.64
2019-05-09T03:25:48.707Z,67.21
2019-05-09T03:28:29.291Z,67.53
2019-05-09T03:30:59.620Z,67.29
2019-05-09T03:33:30.793Z,67.58
2019-05-09T03:35:59.973Z,67.93
2019-05-09T03:38:29.150Z,67.72
2019-05-09T03:40:58.399Z,67.68
2019-05-09T03:43:27.660Z,67.95
2019-05-09T03:46:21.656Z,68.34
2019-05-09T03:48:53.629Z,68.33
2019-05-09T03:51:22.856Z,67.78
2019-05-09T03:53:52.340Z,67.79
2019-05-09T03:56:27.383Z,67.73
2019-05-09T03:58:57.909Z,67.29
2019-05-09T04:01:28.042Z,67.75
2019-05-09T04:03:58.404Z,67.29
2019-05-09T04:06:28.329Z,67.21
2019-05-09T04:08:58.498Z,67.30
2019-05-09T04:11:28.017Z,66.99
2019-05-09T04:14:01.996Z,66.90
2019-05-09T04:16:31.226Z,66.88
2019-05-09T04:19:00.408Z,66.47
2019-05-09T04:21:29.670Z,66.32
2019-05-09T04:23:58.871Z,66.57
2019-05-09T04:26:51.559Z,66.37
2019-05-09T04:29:20.748Z,66.10
2019-05-09T04:31:50.267Z,66.00
2019-05-09T04:34:19.446Z,65.79
2019-05-09T04:36:48.633Z,65.79
2019-05-09T04:39:23.114Z,65.42
2019-05-09T04:41:49.006Z,65.21
2019-05-09T04:44:32.753Z,65.40
2019-05-09T04:47:03.497Z,65.42
2019-05-09T04:49:39.654Z,65.39
2019-05-09T04:52:03.954Z,65.00
2019-05-09T04:54:33.209Z,64.83
2019-05-09T04:57:02.397Z,64.91
2019-05-09T04:59:31.909Z,64.85
2019-05-09T05:02:27.569Z,65.08
2019-05-09T05:04:58.527Z,64.53
2019-05-09T05:07:28.668Z,65.13
2019-05-09T05:09:58.044Z,64.86
2019-05-09T05:12:27.847Z,64.75
2019-05-09T05:14:58.110Z,64.75
2019-05-09T05:17:30.295Z,64.66
2019-05-09T05:19:58.871Z,64.28
2019-05-09T05:22:38.727Z,64.15
2019-05-09T05:25:09.268Z,64.22
2019-05-09T05:27:38.547Z,64.32
2019-05-09T05:30:08.700Z,64.77
2019-05-09T05:32:43.933Z,64.54
2019-05-09T05:35:33.060Z,64.58
2019-05-09T05:38:02.560Z,64.72
2019-05-09T05:40:33.697Z,64.28
2019-05-09T05:43:03.050Z,64.35
2019-05-09T05:45:37.486Z,63.71
2019-05-09T05:48:17.518Z,63.30
2019-05-09T05:50:48.775Z,62.82
2019-05-09T05:53:18.272Z,61.62
2019-05-09T05:55:50.434Z,59.72
2019-05-09T05:58:19.221Z,58.66
2019-05-09T06:00:48.403Z,58.68
2019-05-09T06:03:17.895Z,58.85
2019-05-09T06:05:51.481Z,59.01
2019-05-09T06:08:18.265Z,57.75
2019-05-09T06:10:48.290Z,57.27
2019-05-09T06:13:18.337Z,56.16
2019-05-09T06:15:48.150Z,56.59
2019-05-09T06:18:18.525Z,56.74
2019-05-09T06:20:48.584Z,55.47
2019-05-09T06:23:18.060Z,56.02
2019-05-09T06:25:48.484Z,54.27
2019-05-09T06:28:18.378Z,54.34
2019-05-09T06:30:47.873Z,54.35
2019-05-09T06:33:18.032Z,53.46
2019-05-09T06:35:48.128Z,53.31
2019-05-09T06:38:18.766Z,52.14
2019-05-09T06:40:48.163Z,52.27
2019-05-09T06:43:22.408Z,51.28
2019-05-09T06:46:18.249Z,50.51
2019-05-09T06:48:48.007Z,50.05
2019-05-09T06:51:20.663Z,51.42
2019-05-09T06:53:48.920Z,50.57
2019-05-09T06:56:18.192Z,50.33
2019-05-09T06:58:48.121Z,50.51
2019-05-09T07:01:39.207Z,50.60
2019-05-09T07:04:21.138Z,50.50
2019-05-09T07:06:54.356Z,48.81
2019-05-09T07:09:33.191Z,49.72
2019-05-09T07:12:02.486Z,50.11
2019-05-09T07:14:34.774Z,50.41
2019-05-09T07:17:03.893Z,50.01
2019-05-09T07:19:33.124Z,49.51
2019-05-09T07:22:21.265Z,49.51
2019-05-09T07:25:18.828Z,48.38
2019-05-09T07:27:48.462Z,47.72
2019-05-09T07:30:38.737Z,47.87
2019-05-09T07:33:22.716Z,47.35
2019-05-09T07:35:51.950Z,46.67
2019-05-09T07:38:31.279Z,46.71
2019-05-09T07:41:01.459Z,46.02
2019-05-09T07:43:30.680Z,45.99
2019-05-09T07:46:21.891Z,46.08
2019-05-09T07:48:51.651Z,44.93
2019-05-09T07:51:21.166Z,45.25
2019-05-09T07:53:50.380Z,44.99
2019-05-09T07:56:19.579Z,45.10
2019-05-09T07:58:48.826Z,44.88
2019-05-09T08:01:19.029Z,44.46
2019-05-09T08:03:49.143Z,44.69
2019-05-09T08:06:18.589Z,44.02
2019-05-09T08:08:47.854Z,44.30
2019-05-09T08:11:18.074Z,43.71
2019-05-09T08:13:48.558Z,43.39
2019-05-09T08:16:18.755Z,43.40
2019-05-09T08:18:48.462Z,43.26
2019-05-09T08:21:18.174Z,43.56
2019-05-09T08:23:48.483Z,42.67
2019-05-09T08:26:18.860Z,42.24
2019-05-09T08:28:48.308Z,43.12
2019-05-09T08:31:18.002Z,44.12
2019-05-09T08:33:48.448Z,43.46
2019-05-09T08:36:20.279Z,43.13
2019-05-09T08:38:49.091Z,42.34
2019-05-09T08:41:18.802Z,41.66
2019-05-09T08:43:48.516Z,42.11
2019-05-09T08:46:18.179Z,41.32
2019-05-09T08:48:48.495Z,40.94
2019-05-09T08:51:50.587Z,40.30
2019-05-09T08:54:09.395Z,41.23
2019-05-09T08:56:38.876Z,40.56
2019-05-09T08:59:08.489Z,40.51
2019-05-09T09:02:05.109Z,39.35
2019-05-09T09:04:09.191Z,39.63
2019-05-09T09:06:38.885Z,40.46
2019-05-09T09:09:08.240Z,40.93
2019-05-09T09:11:38.563Z,40.97
2019-05-09T09:14:07.957Z,40.57
2019-05-09T09:16:38.037Z,40.64
2019-05-09T09:19:09.032Z,39.29
2019-05-09T09:21:38.963Z,37.28
2019-05-09T09:24:08.836Z,37.19
2019-05-09T09:26:38.302Z,36.82
2019-05-09T09:29:08.453Z,37.35
2019-05-09T09:31:37.958Z,38.69
2019-05-09T09:34:08.012Z,39.84
2019-05-09T09:36:39.046Z,39.87
2019-05-09T09:39:08.262Z,39.79
2019-05-09T09:41:38.652Z,39.57
2019-05-09T09:44:09.312Z,40.39
2019-05-09T09:46:38.502Z,40.58
2019-05-09T09:49:08.134Z,40.63
2019-05-09T09:51:38.196Z,40.19
2019-05-09T09:54:08.822Z,39.25
2019-05-09T09:56:38.837Z,39.81
2019-05-09T09:59:15.782Z,38.56
2019-05-09T10:01:47.743Z,38.24
2019-05-09T10:04:23.906Z,37.49
2019-05-09T10:06:52.471Z,36.80
2019-05-09T10:09:19.473Z,37.31
2019-05-09T10:11:49.085Z,36.96
2019-05-09T10:14:23.736Z,36.80
2019-05-09T10:17:21.485Z,37.05
2019-05-09T10:19:59.144Z,37.69
2019-05-09T10:22:28.437Z,37.68
2019-05-09T10:24:58.557Z,37.21
2019-05-09T10:27:28.466Z,36.31
2019-05-09T10:29:58.056Z,37.27
2019-05-09T10:32:28.866Z,36.84
2019-05-09T10:34:58.778Z,36.76
2019-05-09T10:37:28.310Z,36.08
2019-05-09T10:39:58.217Z,36.37
2019-05-09T10:42:55.740Z,36.59
2019-05-09T10:45:43.998Z,35.84
2019-05-09T10:48:13.233Z,36.48
2019-05-09T10:50:45.320Z,37.15
2019-05-09T10:53:13.714Z,37.25
2019-05-09T10:55:42.905Z,37.99
2019-05-09T10:58:12.091Z,38.64
2019-05-09T11:00:41.342Z,38.96
2019-05-09T11:03:10.815Z,39.51
2019-05-09T11:05:40.052Z,39.20
2019-05-09T11:08:09.540Z,39.17
2019-05-09T11:10:39.921Z,39.40
2019-05-09T11:13:09.145Z,39.94
2019-05-09T11:15:38.472Z,41.07
2019-05-09T11:18:08.252Z,42.80
2019-05-09T11:20:37.532Z,43.38
2019-05-09T11:23:08.095Z,45.02
2019-05-09T11:25:38.150Z,46.61
2019-05-09T11:28:11.503Z,48.47
2019-05-09T11:30:38.722Z,48.89
2019-05-09T11:33:08.030Z,49.70
2019-05-09T11:35:38.169Z,50.09
2019-05-09T11:38:08.349Z,48.87
2019-05-09T11:40:38.082Z,48.96
2019-05-09T11:43:07.587Z,49.97
2019-05-09T11:45:38.842Z,49.41
2019-05-09T11:48:08.305Z,49.58
2019-05-09T11:50:38.837Z,49.03
2019-05-09T11:53:09.048Z,48.63
2019-05-09T11:55:43.145Z,49.43
2019-05-09T11:58:09.457Z,47.23
2019-05-09T12:00:38.767Z,47.35
2019-05-09T12:03:09.135Z,46.93
2019-05-09T12:05:38.472Z,44.87
2019-05-09T12:08:08.451Z,44.75
2019-05-09T12:10:38.381Z,45.14
2019-05-09T12:13:08.655Z,43.84
2019-05-09T12:15:38.974Z,43.86
2019-05-09T12:18:11.460Z,44.09
2019-05-09T12:20:39.802Z,43.76
2019-05-09T12:23:08.995Z,43.03
2019-05-09T12:25:38.812Z,42.18
2019-05-09T12:28:08.358Z,41.74
2019-05-09T12:30:38.091Z,40.47
2019-05-09T12:33:08.565Z,40.85
2019-05-09T12:35:38.675Z,40.45
2019-05-09T12:38:08.349Z,39.06
2019-05-09T12:40:38.865Z,39.43
2019-05-09T12:43:09.223Z,39.33
2019-05-09T12:45:38.891Z,38.95
2019-05-09T12:48:15.081Z,39.27
2019-05-09T12:50:39.157Z,38.89
2019-05-09T12:53:08.648Z,38.37
2019-05-09T12:55:38.568Z,37.54
2019-05-09T12:58:10.645Z,37.57
2019-05-09T13:00:39.888Z,37.74
2019-05-09T13:03:09.134Z,36.86
2019-05-09T13:05:39.013Z,36.09
2019-05-09T13:08:10.367Z,36.38
2019-05-09T13:10:39.108Z,36.37
2019-05-09T13:13:08.937Z,35.76
2019-05-09T13:15:44.570Z,35.72
2019-05-09T13:18:21.828Z,35.35
2019-05-09T13:20:45.090Z,34.80
2019-05-09T13:23:14.419Z,34.54
2019-05-09T13:25:44.126Z,34.43
2019-05-09T13:28:14.315Z,34.52
2019-05-09T13:30:43.551Z,34.95
2019-05-09T13:33:12.745Z,34.67
2019-05-09T13:35:42.326Z,35.19
2019-05-09T13:38:11.518Z,35.21
2019-05-09T13:40:41.401Z,35.13
2019-05-09T13:43:10.591Z,35.07
2019-05-09T13:45:40.058Z,35.17
2019-05-09T13:48:27.227Z,35.00
2019-05-09T13:50:40.225Z,34.91
2019-05-09T13:53:09.737Z,35.11
2019-05-09T13:55:38.930Z,34.67
2019-05-09T13:58:08.176Z,35.06
2019-05-09T14:00:39.060Z,34.87
2019-05-09T14:03:08.413Z,34.72
2019-05-09T14:05:37.641Z,33.95
2019-05-09T14:08:09.088Z,33.54
2019-05-09T14:10:38.729Z,34.13
2019-05-09T14:13:13.359Z,34.15
2019-05-09T14:15:39.081Z,34.31
2019-05-09T14:18:08.484Z,34.69
2019-05-09T14:20:37.869Z,35.06
2019-05-09T14:23:11.541Z,35.43
2019-05-09T14:25:38.879Z,35.81
2019-05-09T14:28:08.663Z,35.93
2019-05-09T14:30:38.942Z,35.64
2019-05-09T14:33:08.395Z,35.01
2019-05-09T14:35:38.661Z,34.94
2019-05-09T14:38:08.870Z,35.30
2019-05-09T14:40:38.638Z,35.66
2019-05-09T14:43:09.746Z,36.04
2019-05-09T14:45:39.262Z,36.69
2019-05-09T14:48:08.458Z,37.32
2019-05-09T14:50:38.284Z,37.37
2019-05-09T14:53:08.653Z,37.80
2019-05-09T14:55:41.128Z,38.04
2019-05-09T14:58:09.564Z,35.50
2019-05-09T15:00:38.834Z,34.41
2019-05-09T15:03:08.308Z,34.05
2019-05-09T15:05:37.948Z,34.28
2019-05-09T15:08:07.225Z,34.67
2019-05-09T15:10:38.386Z,35.31
2019-05-09T15:13:07.944Z,36.21
2019-05-09T15:15:38.099Z,35.94
2019-05-09T15:18:08.180Z,35.94
2019-05-09T15:20:38.130Z,36.50
2019-05-09T15:23:08.585Z,37.24
2019-05-09T15:25:37.905Z,37.46
2019-05-09T15:28:08.210Z,37.22
2019-05-09T15:30:38.601Z,37.00
2019-05-09T15:33:08.422Z,37.08
2019-05-09T15:35:39.105Z,36.48
2019-05-09T15:38:08.772Z,36.88
2019-05-09T15:40:38.664Z,37.46
2019-05-09T15:43:08.387Z,37.53
2019-05-09T15:45:45.429Z,37.48
2019-05-09T15:48:14.682Z,37.08
2019-05-09T15:50:43.891Z,37.43
2019-05-09T15:53:13.156Z,38.06
2019-05-09T15:55:42.354Z,37.75
2019-05-09T15:58:12.091Z,37.34
2019-05-09T16:00:42.981Z,37.63
2019-05-09T16:03:12.763Z,37.16
2019-05-09T16:05:41.950Z,35.53
2019-05-09T16:08:18.254Z,32.88
2019-05-09T16:10:46.237Z,35.79
2019-05-09T16:13:17.779Z,35.07
2019-05-09T16:15:48.652Z,30.98
2019-05-09T16:18:18.311Z,27.85
2019-05-09T16:20:48.734Z,27.24
2019-05-09T16:23:18.490Z,29.83
2019-05-09T16:25:48.160Z,31.02
2019-05-09T16:28:18.592Z,31.17
2019-05-09T16:30:48.410Z,33.13
2019-05-09T16:33:18.342Z,35.62
2019-05-09T16:35:48.767Z,37.51
2019-05-09T16:38:18.630Z,38.11
2019-05-09T16:40:48.040Z,38.66
2019-05-09T16:43:17.875Z,39.55
2019-05-09T16:45:47.720Z,38.48
2019-05-09T16:48:18.500Z,38.40
2019-05-09T16:51:00.429Z,38.69
2019-05-09T16:53:19.347Z,39.06
2019-05-09T16:55:48.534Z,39.28
2019-05-09T16:58:18.777Z,39.23
2019-05-09T17:00:51.165Z,39.68
2019-05-09T17:03:20.701Z,39.91
2019-05-09T17:05:50.259Z,39.94
2019-05-09T17:08:19.512Z,40.26
2019-05-09T17:10:49.012Z,40.24
2019-05-09T17:13:18.736Z,40.64
2019-05-09T17:15:48.283Z,40.27
2019-05-09T17:18:19.350Z,39.66
2019-05-09T17:21:21.368Z,39.74
2019-05-09T17:23:47.586Z,40.14
2019-05-09T17:26:17.624Z,40.82
2019-05-09T17:28:48.437Z,40.96
2019-05-09T17:31:18.209Z,41.02
2019-05-09T17:33:48.504Z,41.19
2019-05-09T17:36:18.282Z,41.42
2019-05-09T17:38:47.911Z,41.62
2019-05-09T17:41:17.829Z,41.79
2019-05-09T17:43:47.577Z,42.13
2019-05-09T17:46:18.941Z,42.60
2019-05-09T17:48:48.015Z,42.70
2019-05-09T17:51:32.361Z,43.12
2019-05-09T17:53:51.832Z,43.61
2019-05-09T17:56:20.105Z,44.43
2019-05-09T17:58:49.577Z,44.72
2019-05-09T18:01:18.768Z,44.98
2019-05-09T18:03:48.282Z,44.84
2019-05-09T18:06:19.160Z,45.35
2019-05-09T18:08:48.618Z,45.45
2019-05-09T18:11:17.802Z,45.16
2019-05-09T18:13:48.066Z,45.45
2019-05-09T18:16:18.917Z,45.54
2019-05-09T18:18:49.672Z,45.76
2019-05-09T18:21:18.968Z,46.24
2019-05-09T18:23:48.291Z,46.54
2019-05-09T18:26:18.531Z,46.81
2019-05-09T18:28:48.068Z,46.84
2019-05-09T18:31:17.210Z,47.19
2019-05-09T18:33:54.194Z,47.41
2019-05-09T18:36:23.346Z,47.58
2019-05-09T18:38:52.696Z,47.81
2019-05-09T18:41:21.891Z,47.86
2019-05-09T18:43:52.196Z,47.90
2019-05-09T18:46:21.708Z,47.87
2019-05-09T18:48:50.997Z,48.24
2019-05-09T18:51:20.206Z,48.29
2019-05-09T18:53:49.891Z,48.54
2019-05-09T18:56:19.077Z,48.59
2019-05-09T18:58:48.695Z,48.62
2019-05-09T19:01:18.160Z,48.66
2019-05-09T19:03:47.348Z,48.64
2019-05-09T19:06:16.672Z,48.67
2019-05-09T19:08:45.854Z,48.83
2019-05-09T19:11:15.120Z,48.80
2019-05-09T19:13:44.618Z,49.11
2019-05-09T19:16:28.590Z,49.30
2019-05-09T19:19:06.680Z,49.35
2019-05-09T19:21:39.631Z,49.80
2019-05-09T19:24:08.810Z,50.04
2019-05-09T19:26:38.457Z,50.11
2019-05-09T19:29:08.411Z,50.29
2019-05-09T19:31:38.079Z,50.20
2019-05-09T19:34:07.973Z,50.50
2019-05-09T19:36:37.528Z,50.35
2019-05-09T19:39:13.517Z,50.25
2019-05-09T19:41:42.779Z,50.50
2019-05-09T19:44:12.231Z,50.44
2019-05-09T19:46:41.700Z,50.55
2019-05-09T19:49:11.242Z,50.63
2019-05-09T19:51:40.427Z,50.80
2019-05-09T19:54:10.212Z,51.06
2019-05-09T19:56:39.396Z,51.09
2019-05-09T19:59:08.820Z,51.16
2019-05-09T20:01:38.018Z,51.66
2019-05-09T20:04:07.969Z,51.62
2019-05-09T20:06:37.166Z,51.78
2019-05-09T20:09:10.810Z,51.83
2019-05-09T20:12:08.104Z,51.84
2019-05-09T20:14:46.443Z,52.02
2019-05-09T20:17:15.614Z,52.05
2019-05-09T20:19:45.241Z,52.13
2019-05-09T20:22:14.429Z,52.09
2019-05-09T20:24:43.947Z,52.39
2019-05-09T20:27:13.119Z,52.59
2019-05-09T20:29:42.627Z,52.78
2019-05-09T20:32:11.813Z,52.91
2019-05-09T20:34:41.059Z,52.87
2019-05-09T20:37:10.241Z,53.08
2019-05-09T20:39:39.675Z,53.25
2019-05-09T20:42:09.318Z,53.25
2019-05-09T20:44:38.738Z,53.57
2019-05-09T20:47:08.127Z,53.68
2019-05-09T20:49:37.818Z,54.11
2019-05-09T20:52:07.211Z,54.06
2019-05-09T20:54:36.646Z,54.37
2019-05-09T20:57:06.003Z,54.55
2019-05-09T20:59:35.444Z,54.58
2019-05-09T21:02:05.138Z,54.57
2019-05-09T21:04:34.855Z,54.53
2019-05-09T21:07:04.506Z,54.58
2019-05-09T21:09:33.863Z,54.62
2019-05-09T21:12:03.920Z,54.71
2019-05-09T21:14:33.560Z,54.92
2019-05-09T21:17:03.307Z,55.02
2019-05-09T21:19:32.714Z,55.22
2019-05-09T21:22:02.699Z,55.54
2019-05-09T21:24:32.078Z,55.57
2019-05-09T21:27:01.539Z,55.87
2019-05-09T21:29:31.206Z,55.86
2019-05-09T21:32:01.431Z,56.19
2019-05-09T21:34:30.816Z,56.35
2019-05-09T21:37:00.040Z,56.65
2019-05-09T21:39:29.227Z,57.01
2019-05-09T21:41:58.473Z,57.08
2019-05-09T21:44:27.686Z,57.33
2019-05-09T21:46:56.944Z,57.55
2019-05-09T21:49:26.134Z,57.42
2019-05-09T21:51:55.372Z,57.46
2019-05-09T21:54:24.551Z,57.58
2019-05-09T21:56:53.793Z,57.53
2019-05-09T21:59:23.292Z,57.46
2019-05-09T22:01:52.548Z,57.50
2019-05-09T22:04:22.006Z,57.82
2019-05-09T22:06:51.532Z,58.20
2019-05-09T22:09:20.709Z,58.29
2019-05-09T22:11:49.956Z,58.08
2019-05-09T22:14:19.141Z,58.19
2019-05-09T22:16:49.400Z,58.10
2019-05-09T22:19:18.712Z,58.31
2019-05-09T22:21:47.980Z,58.25
2019-05-09T22:24:17.175Z,58.07
2019-05-09T22:26:46.694Z,57.73
2019-05-09T22:29:15.927Z,57.87
2019-05-09T22:31:45.891Z,58.21
2019-05-09T22:34:15.139Z,58.40
2019-05-09T22:36:44.351Z,58.18
2019-05-09T22:39:13.593Z,58.41
2019-05-09T22:41:43.078Z,58.61
2019-05-09T22:44:12.610Z,58.74
2019-05-09T22:46:41.801Z,59.42
2019-05-09T22:49:11.042Z,59.27
2019-05-09T22:51:40.226Z,59.54
2019-05-09T22:54:12.728Z,59.67
2019-05-09T22:56:40.645Z,59.89
2019-05-09T22:59:09.823Z,60.16
2019-05-09T23:01:39.056Z,60.06
2019-05-09T23:04:08.238Z,60.51
2019-05-09T23:06:37.473Z,60.61
2019-05-09T23:09:07.573Z,60.97
2019-05-09T23:11:36.811Z,60.98
2019-05-09T23:14:06.384Z,61.17
2019-05-09T23:16:38.440Z,61.27
2019-05-09T23:19:07.967Z,61.33
2019-05-09T23:21:37.239Z,61.46
2019-05-09T23:24:08.218Z,61.61
2019-05-09T23:26:37.739Z,61.19
2019-05-09T23:29:07.197Z,61.38
2019-05-09T23:31:55.686Z,61.68
2019-05-09T23:34:24.873Z,61.76
2019-05-09T23:39:27.026Z,61.82
2019-05-09T23:41:56.265Z,62.07
2019-05-09T23:44:26.149Z,62.15
2019-05-09T23:46:55.378Z,62.00
2019-05-09T23:49:24.875Z,61.71
2019-05-09T23:51:54.113Z,61.87
2019-05-09T23:54:46.638Z,62.00
2019-05-09T23:57:30.028Z,62.02
